Time;durP1;ratioP1;P1;durP2;ratioP2;P2;SDS_P1;SDS_P2;PMS_P1;PMS_P2;Temp;Humidity;BMP_temperature;BMP_pressure;BME280_temperature;BME280_humidity;BME280_pressure;Samples;Min_cycle;Max_cycle;Signal;HPM_P1;HPM_P2
2023/10/27 00:00:24;;;;;;;14.07;3.10;;;11.10;99.90;;;;;;5069341;28;20535;-70
2023/10/27 00:02:52;;;;;;;14.23;2.80;;;11.10;99.90;;;;;;5068514;28;20453;-70
2023/10/27 00:05:20;;;;;;;9.00;2.90;;;11.10;99.90;;;;;;5069459;28;20534;-71
2023/10/27 00:07:49;;;;;;;8.90;2.83;;;11.10;99.90;;;;;;5069129;28;20464;-71
2023/10/27 00:10:17;;;;;;;9.47;2.60;;;11.00;99.90;;;;;;5068999;28;20443;-68
2023/10/27 00:12:45;;;;;;;10.17;2.70;;;11.10;99.90;;;;;;5068680;28;20957;-70
2023/10/27 00:15:13;;;;;;;9.73;3.10;;;11.00;99.90;;;;;;5068608;28;20449;-70
2023/10/27 00:17:41;;;;;;;10.70;3.07;;;11.00;99.90;;;;;;5068815;28;20920;-70
2023/10/27 00:20:10;;;;;;;11.40;3.20;;;11.00;99.90;;;;;;5069199;28;20450;-70
2023/10/27 00:22:38;;;;;;;10.37;2.80;;;11.10;99.90;;;;;;5068615;28;20467;-71
2023/10/27 00:25:08;;;;;;;11.40;2.60;;;11.00;99.90;;;;;;5068417;28;20473;-70
2023/10/27 00:27:36;;;;;;;10.00;2.53;;;11.00;99.90;;;;;;5068861;28;20571;-70
2023/10/27 00:30:05;;;;;;;13.60;3.33;;;11.00;99.90;;;;;;5068370;28;21046;-71
2023/10/27 00:32:33;;;;;;;12.37;2.70;;;10.90;99.90;;;;;;5068275;28;20472;-70
2023/10/27 00:35:01;;;;;;;10.43;2.67;;;10.90;99.90;;;;;;5068086;28;20462;-70
2023/10/27 00:37:29;;;;;;;9.27;2.40;;;10.90;99.90;;;;;;5068940;28;20574;-71
2023/10/27 00:39:57;;;;;;;9.23;2.60;;;10.90;99.90;;;;;;5068660;28;20829;-71
2023/10/27 00:42:26;;;;;;;11.07;2.70;;;10.90;99.90;;;;;;5068467;28;20451;-70
2023/10/27 00:44:54;;;;;;;11.07;2.30;;;10.90;99.90;;;;;;5068479;28;20443;-70
2023/10/27 00:47:22;;;;;;;8.77;1.97;;;10.80;99.90;;;;;;5068461;28;21148;-70
2023/10/27 00:49:50;;;;;;;9.70;2.40;;;10.90;99.90;;;;;;5069333;28;20452;-71
2023/10/27 00:52:19;;;;;;;9.00;2.13;;;10.80;99.90;;;;;;5071114;28;20440;-71
2023/10/27 00:54:49;;;;;;;8.77;2.50;;;10.80;99.90;;;;;;5070933;28;20447;-71
2023/10/27 00:57:18;;;;;;;8.10;2.07;;;10.80;99.90;;;;;;5070810;28;20837;-71
2023/10/27 00:59:47;;;;;;;7.73;2.33;;;10.80;99.90;;;;;;5069901;28;20456;-71
2023/10/27 01:02:17;;;;;;;9.70;2.20;;;10.70;99.90;;;;;;5067613;28;20514;-70
2023/10/27 01:04:45;;;;;;;9.10;2.23;;;10.70;99.90;;;;;;5068276;28;20447;-70
2023/10/27 01:07:13;;;;;;;10.60;1.90;;;10.80;99.90;;;;;;5068162;28;20463;-68
2023/10/27 01:09:41;;;;;;;10.77;2.00;;;10.70;99.90;;;;;;5065717;28;20514;-70
2023/10/27 01:12:09;;;;;;;8.30;2.27;;;10.80;99.90;;;;;;5062785;28;20504;-70
2023/10/27 01:14:38;;;;;;;13.90;2.87;;;10.70;99.90;;;;;;5065610;28;20444;-71
2023/10/27 01:17:07;;;;;;;10.77;2.40;;;10.70;99.90;;;;;;5068075;28;20980;-71
2023/10/27 01:19:36;;;;;;;10.00;2.43;;;10.70;99.90;;;;;;5068131;28;20447;-70
2023/10/27 01:22:05;;;;;;;14.10;2.30;;;10.70;99.90;;;;;;5067230;28;20447;-71
2023/10/27 01:24:35;;;;;;;8.77;2.20;;;10.60;99.90;;;;;;5067648;28;20443;-70
2023/10/27 01:27:03;;;;;;;10.83;2.20;;;10.60;99.90;;;;;;5068186;28;20890;-71
2023/10/27 01:29:31;;;;;;;9.70;2.50;;;10.70;99.90;;;;;;5067972;28;20977;-71
2023/10/27 01:31:59;;;;;;;8.13;1.90;;;10.60;99.90;;;;;;5062556;28;20447;-71
2023/10/27 01:34:27;;;;;;;10.77;2.10;;;10.60;99.90;;;;;;5062357;28;20435;-68
2023/10/27 01:36:55;;;;;;;8.70;2.27;;;10.60;99.90;;;;;;5067670;28;20500;-70
2023/10/27 01:39:23;;;;;;;8.63;1.73;;;10.60;99.90;;;;;;5068440;28;20503;-71
2023/10/27 01:41:52;;;;;;;8.33;1.83;;;10.50;99.90;;;;;;5067603;28;20448;-71
2023/10/27 01:44:20;;;;;;;8.90;1.50;;;10.50;99.90;;;;;;5068131;28;20449;-70
2023/10/27 01:46:48;;;;;;;9.07;1.90;;;10.50;99.90;;;;;;5067867;28;20522;-71
2023/10/27 01:49:16;;;;;;;7.90;1.67;;;10.50;99.90;;;;;;5071479;28;20979;-70
2023/10/27 01:51:44;;;;;;;8.60;2.13;;;10.50;99.90;;;;;;5070696;28;21259;-70
2023/10/27 01:54:12;;;;;;;6.97;1.50;;;10.50;99.90;;;;;;5066342;28;20544;-70
2023/10/27 01:56:40;;;;;;;9.30;1.67;;;10.50;99.90;;;;;;5063225;28;20475;-70
2023/10/27 01:59:09;;;;;;;8.50;1.80;;;10.40;99.90;;;;;;5071589;28;20526;-70
2023/10/27 02:01:37;;;;;;;8.77;2.10;;;10.40;99.90;;;;;;5069422;28;20450;-70
2023/10/27 02:04:05;;;;;;;11.77;1.73;;;10.40;99.90;;;;;;5071204;28;20944;-70
2023/10/27 02:06:33;;;;;;;9.70;1.70;;;10.40;99.90;;;;;;5060459;28;20994;-71
2023/10/27 02:09:01;;;;;;;9.47;2.27;;;10.40;99.90;;;;;;5067074;28;20449;-70
2023/10/27 02:11:29;;;;;;;7.37;1.93;;;10.40;99.90;;;;;;5070169;28;21105;-71
2023/10/27 02:13:57;;;;;;;11.60;1.90;;;10.40;99.90;;;;;;5071363;28;20444;-70
2023/10/27 02:16:26;;;;;;;7.20;1.80;;;10.40;99.90;;;;;;5070749;28;20848;-70
2023/10/27 02:18:54;;;;;;;8.03;1.90;;;10.30;99.90;;;;;;5071405;28;20490;-70
2023/10/27 02:21:22;;;;;;;9.63;1.67;;;10.40;99.90;;;;;;5070847;28;20444;-70
2023/10/27 02:23:50;;;;;;;9.00;2.23;;;10.30;99.90;;;;;;5070792;28;20447;-71
2023/10/27 02:26:19;;;;;;;9.00;2.37;;;10.30;99.90;;;;;;5070482;28;20466;-71
2023/10/27 02:28:47;;;;;;;8.20;1.97;;;10.30;99.90;;;;;;5071103;28;20446;-70
2023/10/27 02:31:15;;;;;;;8.60;2.07;;;10.30;99.90;;;;;;5070544;28;20452;-71
2023/10/27 02:33:44;;;;;;;9.03;1.60;;;10.40;99.90;;;;;;5070306;28;20482;-70
2023/10/27 02:36:12;;;;;;;11.93;2.03;;;10.40;99.90;;;;;;5070691;28;20498;-72
2023/10/27 02:38:40;;;;;;;9.53;2.20;;;10.30;99.90;;;;;;5070075;28;20480;-71
2023/10/27 02:41:08;;;;;;;10.53;2.20;;;10.30;99.90;;;;;;5070616;28;20539;-71
2023/10/27 02:43:37;;;;;;;9.20;1.90;;;10.30;99.90;;;;;;5070067;28;20461;-70
2023/10/27 02:46:06;;;;;;;9.33;2.00;;;10.40;99.90;;;;;;5069806;28;20439;-71
2023/10/27 02:48:34;;;;;;;8.00;2.07;;;10.40;99.90;;;;;;5071008;28;20476;-71
2023/10/27 02:51:03;;;;;;;8.87;1.83;;;10.40;99.90;;;;;;5069679;28;20500;-67
2023/10/27 02:53:31;;;;;;;10.27;2.10;;;10.40;99.90;;;;;;5070659;28;20445;-70
2023/10/27 02:56:05;;;;;;;10.03;1.90;;;10.30;99.90;;;;;;5070051;28;20906;-70
2023/10/27 02:58:33;;;;;;;10.23;2.00;;;10.40;99.90;;;;;;5069166;28;21043;-70
2023/10/27 03:01:07;;;;;;;7.93;1.70;;;10.30;99.90;;;;;;5069746;28;20497;-69
2023/10/27 03:03:35;;;;;;;9.67;2.30;;;10.30;99.90;;;;;;5069997;28;20468;-71
2023/10/27 03:06:05;;;;;;;9.40;1.80;;;10.30;99.90;;;;;;5069961;28;20462;-70
2023/10/27 03:08:34;;;;;;;9.00;1.63;;;10.20;99.90;;;;;;5070424;28;20937;-72
2023/10/27 03:11:02;;;;;;;8.70;2.27;;;10.30;99.90;;;;;;5062108;28;20458;-68
2023/10/27 03:13:31;;;;;;;9.83;1.80;;;10.30;99.90;;;;;;5070374;28;20457;-70
2023/10/27 03:15:59;;;;;;;11.40;2.07;;;10.30;99.90;;;;;;5069605;28;20489;-71
2023/10/27 03:18:28;;;;;;;9.27;1.77;;;10.30;99.90;;;;;;5070589;28;20502;-71
2023/10/27 03:20:56;;;;;;;9.10;2.10;;;10.30;99.90;;;;;;5069751;28;20444;-70
2023/10/27 03:23:28;;;;;;;7.60;1.70;;;10.30;99.90;;;;;;5069892;28;21057;-70
2023/10/27 03:25:58;;;;;;;8.83;2.20;;;10.20;99.90;;;;;;5069861;28;20447;-70
2023/10/27 03:28:26;;;;;;;7.30;1.83;;;10.10;99.90;;;;;;5070125;28;20443;-70
2023/10/27 03:30:54;;;;;;;8.17;2.60;;;10.20;99.90;;;;;;5069271;28;20447;-70
2023/10/27 03:33:22;;;;;;;6.83;2.23;;;10.20;99.90;;;;;;5069793;28;20439;-70
2023/10/27 03:35:50;;;;;;;7.90;1.70;;;10.20;99.90;;;;;;5069377;28;20449;-72
2023/10/27 03:38:18;;;;;;;7.40;2.40;;;10.20;99.90;;;;;;5069881;28;20535;-71
2023/10/27 03:40:48;;;;;;;8.43;1.80;;;10.10;99.90;;;;;;5069361;28;20459;-71
2023/10/27 03:43:16;;;;;;;10.10;2.63;;;10.00;99.90;;;;;;5068510;28;20897;-70
2023/10/27 03:45:44;;;;;;;8.50;2.07;;;10.00;99.90;;;;;;5068845;28;20581;-70
2023/10/27 03:48:14;;;;;;;10.73;2.33;;;10.10;99.90;;;;;;5069628;28;20593;-71
2023/10/27 03:50:42;;;;;;;10.27;2.40;;;10.00;99.90;;;;;;5069093;28;20550;-72
2023/10/27 03:53:10;;;;;;;8.57;2.33;;;10.10;99.90;;;;;;5068010;28;20957;-71
2023/10/27 03:55:38;;;;;;;9.60;2.20;;;10.20;99.90;;;;;;5068493;28;20966;-70
2023/10/27 03:58:17;;;;;;;9.33;3.07;;;10.10;99.90;;;;;;5069167;28;20487;-71
2023/10/27 04:00:49;;;;;;;14.50;5.40;;;10.10;99.90;;;;;;5068793;28;21021;-70
2023/10/27 04:03:17;;;;;;;15.80;5.90;;;10.10;99.90;;;;;;5069248;28;20941;-70
2023/10/27 04:05:45;;;;;;;10.50;4.00;;;10.20;99.90;;;;;;5068689;28;20986;-69
2023/10/27 04:08:13;;;;;;;13.87;4.07;;;10.10;99.90;;;;;;5056021;28;20802;-71
2023/10/27 04:10:42;;;;;;;11.30;3.70;;;10.10;99.90;;;;;;5064251;28;20482;-71
2023/10/27 04:13:12;;;;;;;9.63;2.47;;;10.10;99.90;;;;;;5068464;28;20483;-70
2023/10/27 04:15:44;;;;;;;9.43;2.20;;;10.20;99.90;;;;;;5068811;28;20482;-70
2023/10/27 04:18:12;;;;;;;8.83;1.60;;;10.10;99.90;;;;;;5069094;28;20507;-70
2023/10/27 04:20:40;;;;;;;6.90;1.60;;;10.10;99.90;;;;;;5067804;28;20902;-71
2023/10/27 04:23:09;;;;;;;11.00;1.73;;;10.10;99.90;;;;;;5068741;28;20472;-70
2023/10/27 04:25:39;;;;;;;7.63;2.03;;;10.20;99.90;;;;;;5068544;28;20449;-71
2023/10/27 04:28:07;;;;;;;9.63;2.13;;;10.20;99.90;;;;;;5067908;28;20465;-71
2023/10/27 04:30:36;;;;;;;9.30;1.73;;;10.20;99.90;;;;;;5068509;28;20612;-71
2023/10/27 04:33:05;;;;;;;9.40;1.97;;;10.10;99.90;;;;;;5068425;28;20485;-70
2023/10/27 04:35:34;;;;;;;7.50;1.60;;;10.10;99.90;;;;;;5068633;28;21310;-69
2023/10/27 04:38:03;;;;;;;7.40;1.90;;;10.10;99.90;;;;;;5068263;28;20495;-70
2023/10/27 04:40:34;;;;;;;9.03;2.20;;;10.10;99.90;;;;;;5068088;28;20498;-70
2023/10/27 04:43:03;;;;;;;9.57;1.90;;;10.10;99.90;;;;;;5067718;28;20531;-70
2023/10/27 04:45:31;;;;;;;8.43;1.63;;;10.10;99.90;;;;;;5068592;28;20469;-71
2023/10/27 04:47:59;;;;;;;9.60;1.40;;;10.10;99.90;;;;;;5068916;28;20472;-70
2023/10/27 04:50:28;;;;;;;9.10;2.03;;;10.10;99.90;;;;;;5068731;28;20930;-70
2023/10/27 04:52:56;;;;;;;6.80;1.70;;;10.10;99.90;;;;;;5067510;28;20478;-70
2023/10/27 04:55:24;;;;;;;7.70;1.90;;;10.00;99.90;;;;;;5068796;28;20565;-71
2023/10/27 04:57:52;;;;;;;12.23;2.67;;;10.10;99.90;;;;;;5068475;28;20465;-71
2023/10/27 05:00:20;;;;;;;7.80;1.97;;;10.10;99.90;;;;;;5066264;28;21031;-71
2023/10/27 05:02:50;;;;;;;7.63;1.70;;;10.20;99.90;;;;;;5060977;28;20547;-72
2023/10/27 05:05:18;;;;;;;7.20;1.80;;;10.10;99.90;;;;;;5060602;28;20523;-71
2023/10/27 05:07:48;;;;;;;9.40;1.63;;;10.10;99.90;;;;;;5063755;28;20484;-72
2023/10/27 05:10:16;;;;;;;7.57;1.80;;;10.10;99.90;;;;;;5068363;28;20437;-71
2023/10/27 05:12:44;;;;;;;8.20;1.90;;;10.10;99.90;;;;;;5064895;28;20460;-70
2023/10/27 05:15:13;;;;;;;9.80;2.00;;;10.10;99.90;;;;;;5062028;28;20855;-71
2023/10/27 05:17:41;;;;;;;6.80;1.40;;;10.10;99.90;;;;;;5066253;28;20471;-72
2023/10/27 05:20:10;;;;;;;9.20;1.97;;;10.20;99.90;;;;;;5068208;28;20494;-70
2023/10/27 05:22:38;;;;;;;9.50;2.30;;;10.30;99.90;;;;;;5070283;28;20455;-71
2023/10/27 05:25:08;;;;;;;7.50;1.90;;;10.20;99.90;;;;;;5072198;28;20442;-71
2023/10/27 05:27:37;;;;;;;12.20;1.80;;;10.20;99.90;;;;;;5072254;28;20968;-70
2023/10/27 05:30:06;;;;;;;11.67;2.00;;;10.10;99.90;;;;;;5062865;28;20509;-71
2023/10/27 05:32:34;;;;;;;10.17;2.13;;;10.20;99.90;;;;;;5064911;28;20439;-71
2023/10/27 05:35:02;;;;;;;6.80;1.40;;;10.10;99.90;;;;;;5066476;28;20474;-71
2023/10/27 05:37:30;;;;;;;11.20;2.40;;;10.10;99.90;;;;;;5064642;28;20464;-71
2023/10/27 05:39:58;;;;;;;8.20;2.30;;;10.10;99.90;;;;;;5065646;28;20903;-71
2023/10/27 05:42:27;;;;;;;7.70;2.13;;;10.10;99.90;;;;;;5065181;28;20450;-72
2023/10/27 05:44:55;;;;;;;8.47;2.30;;;10.20;99.90;;;;;;5065567;28;20478;-72
2023/10/27 05:47:23;;;;;;;7.90;1.43;;;10.20;99.90;;;;;;5065220;28;20460;-71
2023/10/27 05:49:54;;;;;;;11.23;2.33;;;10.20;99.90;;;;;;5064135;28;20988;-71
2023/10/27 05:52:22;;;;;;;9.07;1.73;;;10.20;99.90;;;;;;5065958;28;20448;-71
2023/10/27 05:54:50;;;;;;;9.37;2.17;;;10.10;99.90;;;;;;5064066;28;20528;-71
2023/10/27 05:57:18;;;;;;;10.03;2.23;;;10.20;99.90;;;;;;5066098;28;20471;-71
2023/10/27 05:59:49;;;;;;;9.63;1.73;;;10.20;99.90;;;;;;5063128;28;20482;-70
2023/10/27 06:02:17;;;;;;;8.07;2.40;;;10.20;99.90;;;;;;5065855;28;20477;-71
2023/10/27 06:04:45;;;;;;;7.97;2.17;;;10.20;99.90;;;;;;5062722;28;20458;-71
2023/10/27 06:07:15;;;;;;;12.23;2.17;;;10.10;99.90;;;;;;5065930;28;20472;-71
2023/10/27 06:09:44;;;;;;;8.60;1.83;;;10.10;99.90;;;;;;5062678;28;20950;-71
2023/10/27 06:12:12;;;;;;;7.77;2.00;;;10.20;99.90;;;;;;5066064;28;20530;-71
2023/10/27 06:14:44;;;;;;;8.93;1.97;;;10.20;99.90;;;;;;5062923;28;20574;-69
2023/10/27 06:17:14;;;;;;;7.73;2.20;;;10.30;99.90;;;;;;5065623;28;20499;-70
2023/10/27 06:19:42;;;;;;;9.43;2.20;;;10.20;99.90;;;;;;5063219;28;20484;-70
2023/10/27 06:22:10;;;;;;;8.30;1.80;;;10.30;99.90;;;;;;5065606;28;20445;-70
2023/10/27 06:24:38;;;;;;;8.50;2.07;;;10.20;99.90;;;;;;5062010;28;20446;-70
2023/10/27 06:27:06;;;;;;;6.83;1.50;;;10.20;99.90;;;;;;5066222;28;20463;-70
2023/10/27 06:29:34;;;;;;;7.80;2.10;;;10.10;99.90;;;;;;5064526;28;20448;-71
2023/10/27 06:32:03;;;;;;;8.03;1.70;;;10.10;99.90;;;;;;5065621;28;20858;-70
2023/10/27 06:34:33;;;;;;;7.67;2.00;;;10.10;99.90;;;;;;5063327;28;20894;-71
2023/10/27 06:37:01;;;;;;;7.60;1.97;;;10.20;99.90;;;;;;5064822;28;20474;-70
2023/10/27 06:39:29;;;;;;;7.10;1.97;;;10.20;99.90;;;;;;5064074;28;20487;-72
2023/10/27 06:41:58;;;;;;;9.63;2.57;;;10.20;99.90;;;;;;5063878;28;20453;-72
2023/10/27 06:44:27;;;;;;;9.03;1.93;;;10.40;99.90;;;;;;5063728;28;20491;-70
2023/10/27 06:46:56;;;;;;;7.90;1.97;;;10.30;99.90;;;;;;5063215;28;20503;-71
2023/10/27 06:49:25;;;;;;;8.87;2.00;;;10.40;99.90;;;;;;5067604;28;20551;-72
2023/10/27 06:51:54;;;;;;;7.70;1.83;;;10.40;99.90;;;;;;5062873;28;20448;-69
2023/10/27 06:54:24;;;;;;;8.23;2.10;;;10.40;99.90;;;;;;5064992;28;20447;-69
2023/10/27 06:56:54;;;;;;;11.23;2.33;;;10.50;99.90;;;;;;5062798;28;20522;-69
2023/10/27 06:59:22;;;;;;;8.00;1.83;;;10.50;99.90;;;;;;5064517;28;20440;-67
2023/10/27 07:01:52;;;;;;;9.50;2.17;;;10.50;99.90;;;;;;5062457;28;20482;-69
2023/10/27 07:04:20;;;;;;;9.10;2.37;;;10.50;99.90;;;;;;5065227;28;20474;-71
2023/10/27 07:06:48;;;;;;;9.10;2.60;;;10.50;99.90;;;;;;5062279;28;20540;-71
2023/10/27 07:09:17;;;;;;;9.43;1.80;;;10.60;99.90;;;;;;5065224;28;20440;-69
2023/10/27 07:11:45;;;;;;;8.20;2.20;;;10.70;99.90;;;;;;5061400;28;20484;-69
2023/10/27 07:14:14;;;;;;;10.50;2.60;;;10.70;99.90;;;;;;5064618;28;20437;-69
2023/10/27 07:16:43;;;;;;;10.80;2.10;;;10.80;99.90;;;;;;5061225;28;20546;-69
2023/10/27 07:19:12;;;;;;;8.50;2.03;;;10.90;99.90;;;;;;5064496;28;20497;-69
2023/10/27 07:21:41;;;;;;;8.83;2.07;;;10.90;99.90;;;;;;5061291;28;20487;-69
2023/10/27 07:24:09;;;;;;;6.97;1.70;;;10.90;99.90;;;;;;5064432;28;20448;-70
2023/10/27 07:26:39;;;;;;;6.90;1.70;;;10.90;99.90;;;;;;5061426;28;20999;-69
2023/10/27 07:29:07;;;;;;;7.47;1.50;;;10.90;99.90;;;;;;5064301;28;20436;-70
2023/10/27 07:31:35;;;;;;;7.10;1.67;;;11.00;99.90;;;;;;5062039;28;20495;-71
2023/10/27 07:34:05;;;;;;;6.87;1.30;;;10.90;99.90;;;;;;5063471;28;20499;-71
2023/10/27 07:36:33;;;;;;;8.93;1.80;;;11.00;99.90;;;;;;5061944;28;20872;-71
2023/10/27 07:39:01;;;;;;;7.87;1.53;;;11.00;99.90;;;;;;5062841;28;20457;-72
2023/10/27 07:41:31;;;;;;;7.77;1.30;;;11.10;99.90;;;;;;5062152;28;20534;-72
2023/10/27 07:44:00;;;;;;;7.63;1.30;;;11.10;99.90;;;;;;5061969;28;20978;-69
2023/10/27 07:46:28;;;;;;;6.40;1.17;;;11.10;99.90;;;;;;5062119;28;20494;-69
2023/10/27 07:48:56;;;;;;;6.90;1.13;;;11.20;99.90;;;;;;5062025;28;20799;-69
2023/10/27 07:51:24;;;;;;;6.33;1.10;;;11.20;99.90;;;;;;5062554;28;20538;-69
2023/10/27 07:53:53;;;;;;;7.07;1.40;;;11.30;99.90;;;;;;5061094;28;20487;-70
2023/10/27 07:56:21;;;;;;;7.43;1.10;;;11.40;99.90;;;;;;5062912;28;20521;-70
2023/10/27 07:58:49;;;;;;;7.10;1.20;;;11.40;99.90;;;;;;5060657;28;20568;-71
2023/10/27 08:01:18;;;;;;;7.18;1.30;;;11.70;99.90;;;;;;5062371;28;20450;-71
2023/10/27 08:03:46;;;;;;;7.17;1.20;;;11.70;99.90;;;;;;5060332;28;20593;-70
2023/10/27 08:06:15;;;;;;;6.40;1.20;;;11.80;99.90;;;;;;5062708;28;20589;-70
2023/10/27 08:08:43;;;;;;;7.30;0.80;;;11.80;99.90;;;;;;5060027;28;21101;-69
2023/10/27 08:11:17;;;;;;;6.47;0.87;;;11.80;99.90;;;;;;5061124;28;20455;-69
2023/10/27 08:13:45;;;;;;;7.07;1.33;;;11.90;99.90;;;;;;5059754;28;20444;-70
2023/10/27 08:16:14;;;;;;;6.67;1.10;;;11.90;99.90;;;;;;5062565;28;20481;-71
2023/10/27 08:18:46;;;;;;;6.97;0.87;;;12.00;99.90;;;;;;5059376;28;20454;-70
2023/10/27 08:21:14;;;;;;;6.90;1.00;;;12.10;99.90;;;;;;5062202;28;20483;-70
2023/10/27 08:23:42;;;;;;;6.10;0.60;;;12.10;99.90;;;;;;5059820;28;20905;-70
2023/10/27 08:26:10;;;;;;;6.93;0.80;;;12.10;99.90;;;;;;5060757;28;20476;-70
2023/10/27 08:28:38;;;;;;;5.83;0.60;;;12.20;99.90;;;;;;5060208;28;20544;-71
2023/10/27 08:31:06;;;;;;;6.80;0.73;;;12.20;99.90;;;;;;5061383;28;20474;-71
2023/10/27 08:33:34;;;;;;;5.87;0.70;;;12.30;99.90;;;;;;5060735;28;20435;-71
2023/10/27 08:36:04;;;;;;;5.70;0.50;;;12.40;99.90;;;;;;5061266;28;20443;-70
2023/10/27 08:38:32;;;;;;;6.37;0.90;;;12.50;99.90;;;;;;5062551;28;20844;-70
2023/10/27 08:41:01;;;;;;;6.13;0.40;;;12.40;99.90;;;;;;5062013;28;20510;-70
2023/10/27 08:43:29;;;;;;;6.03;0.50;;;12.30;99.90;;;;;;5060942;28;20483;-71
2023/10/27 08:45:57;;;;;;;6.63;0.60;;;12.20;99.90;;;;;;5060219;28;20462;-69
2023/10/27 08:48:25;;;;;;;5.90;0.50;;;12.20;99.90;;;;;;5061639;28;20449;-69
2023/10/27 08:50:57;;;;;;;5.90;0.70;;;12.00;99.90;;;;;;5059447;28;20983;-69
2023/10/27 08:53:26;;;;;;;6.00;0.50;;;11.90;99.90;;;;;;5061532;28;20444;-70
2023/10/27 08:55:54;;;;;;;5.50;0.50;;;11.80;99.90;;;;;;5059074;28;20559;-69
2023/10/27 08:58:23;;;;;;;7.07;0.53;;;11.70;99.90;;;;;;5061353;28;20952;-71
2023/10/27 09:00:51;;;;;;;6.00;0.60;;;11.70;99.90;;;;;;5059148;28;20887;-70
2023/10/27 09:03:19;;;;;;;6.30;0.40;;;11.70;99.90;;;;;;5062033;28;20564;-70
2023/10/27 09:05:47;;;;;;;5.77;0.50;;;11.80;99.90;;;;;;5058417;28;20527;-70
2023/10/27 09:08:18;;;;;;;5.60;0.40;;;11.70;99.90;;;;;;5061830;28;20509;-70
2023/10/27 09:10:47;;;;;;;5.90;0.40;;;11.70;99.90;;;;;;5058364;28;20446;-71
2023/10/27 09:13:21;;;;;;;5.63;0.40;;;11.70;99.90;;;;;;5061937;28;20877;-71
2023/10/27 09:15:50;;;;;;;6.80;0.60;;;11.80;99.90;;;;;;5058607;28;20445;-70
2023/10/27 09:18:18;;;;;;;5.90;0.50;;;11.80;99.90;;;;;;5061936;28;20449;-69
2023/10/27 09:20:48;;;;;;;5.70;0.50;;;11.80;99.90;;;;;;5061281;28;20522;-70
2023/10/27 09:23:16;;;;;;;8.43;0.70;;;12.00;99.90;;;;;;5061287;28;20521;-70
2023/10/27 09:25:44;;;;;;;6.57;0.50;;;12.10;99.90;;;;;;5057994;28;20508;-71
2023/10/27 09:28:14;;;;;;;6.33;0.50;;;12.20;99.90;;;;;;5060602;28;20838;-71
2023/10/27 09:30:44;;;;;;;5.63;0.40;;;12.30;99.90;;;;;;5058272;28;20495;-70
2023/10/27 09:33:18;;;;;;;8.20;0.70;;;12.20;99.90;;;;;;5063001;28;20864;-70
2023/10/27 09:35:47;;;;;;;5.80;0.67;;;12.10;99.90;;;;;;5057615;28;20450;-70
2023/10/27 09:38:15;;;;;;;5.60;0.40;;;12.00;99.90;;;;;;5060742;28;20490;-71
2023/10/27 09:40:45;;;;;;;6.60;0.50;;;12.00;99.90;;;;;;5057944;28;20500;-71
2023/10/27 09:43:19;;;;;;;5.60;0.40;;;12.00;99.90;;;;;;5060099;28;20457;-71
2023/10/27 09:45:54;;;;;;;5.53;0.40;;;11.80;99.90;;;;;;5057457;28;20436;-70
2023/10/27 09:48:25;;;;;;;5.90;0.50;;;11.70;99.90;;;;;;5061561;28;20480;-70
2023/10/27 09:51:00;;;;;;;5.70;0.53;;;11.60;99.90;;;;;;5058351;28;20930;-68
2023/10/27 09:53:29;;;;;;;6.27;0.50;;;11.70;99.90;;;;;;5059833;28;20489;-69
2023/10/27 09:55:59;;;;;;;5.60;0.40;;;11.80;99.90;;;;;;5058687;28;20448;-68
2023/10/27 09:58:31;;;;;;;6.20;0.50;;;11.80;99.90;;;;;;5060396;28;20435;-68
2023/10/27 10:01:01;;;;;;;5.60;0.40;;;11.80;99.90;;;;;;5058867;28;20446;-69
2023/10/27 10:03:29;;;;;;;6.50;0.60;;;11.80;99.90;;;;;;5055282;28;20522;-67
2023/10/27 10:06:11;;;;;;;6.57;0.60;;;11.80;99.90;;;;;;5058496;28;20452;-70
2023/10/27 10:08:41;;;;;;;6.60;0.63;;;11.80;99.90;;;;;;5060354;28;20491;-69
2023/10/27 10:11:13;;;;;;;5.90;0.40;;;11.70;99.90;;;;;;5063431;28;20459;-69
2023/10/27 10:13:44;;;;;;;5.90;0.60;;;11.70;99.90;;;;;;5061203;28;20939;-69
2023/10/27 10:16:14;;;;;;;6.00;0.60;;;11.90;99.90;;;;;;5063270;28;20460;-69
2023/10/27 10:18:52;;;;;;;5.73;0.50;;;12.00;99.90;;;;;;5061251;28;20447;-70
2023/10/27 10:21:38;;;;;;;5.90;0.70;;;12.20;99.90;;;;;;5063859;28;20482;-71
2023/10/27 10:24:09;;;;;;;5.77;0.70;;;12.80;99.90;;;;;;5062936;28;20487;-68
2023/10/27 10:27:10;;;;;;;8.53;0.70;;;13.30;99.90;;;;;;5061678;28;20455;-66
2023/10/27 10:29:40;;;;;;;6.30;0.73;;;13.50;99.90;;;;;;5063961;28;20447;-66
2023/10/27 10:32:30;;;;;;;6.27;0.73;;;13.40;99.90;;;;;;5062583;28;20457;-67
2023/10/27 10:35:20;;;;;;;5.70;0.60;;;13.00;99.90;;;;;;5061708;28;20855;-69
2023/10/27 10:37:51;;;;;;;5.67;0.60;;;12.70;99.90;;;;;;5056131;28;20474;-68
2023/10/27 10:40:24;;;;;;;6.10;0.83;;;12.60;99.90;;;;;;5063444;28;21009;-69
2023/10/27 10:43:20;;;;;;;6.73;0.70;;;12.50;99.90;;;;;;5060231;28;20517;-69
2023/10/27 10:45:53;;;;;;;6.60;0.77;;;13.10;99.90;;;;;;5047109;28;20538;-69
2023/10/27 10:48:22;;;;;;;6.43;1.47;;;13.60;99.90;;;;;;5064646;28;20438;-72
2023/10/27 10:50:52;;;;;;;7.00;0.90;;;14.30;99.90;;;;;;5060868;28;20947;-70
2023/10/27 10:53:24;;;;;;;6.20;0.90;;;14.70;99.90;;;;;;5064127;28;20439;-71
2023/10/27 10:55:57;;;;;;;5.80;0.60;;;15.00;99.90;;;;;;5060457;28;20889;-72
2023/10/27 10:58:27;;;;;;;6.90;1.03;;;15.40;99.90;;;;;;5063117;28;20432;-71
2023/10/27 11:00:59;;;;;;;6.40;0.77;;;16.00;99.90;;;;;;5060752;28;20498;-71
2023/10/27 11:03:31;;;;;;;7.57;0.70;;;16.60;99.90;;;;;;5061969;28;20483;-71
2023/10/27 11:06:01;;;;;;;6.10;0.50;;;16.50;99.90;;;;;;5060643;28;21016;-71
2023/10/27 11:08:32;;;;;;;6.63;0.87;;;16.60;99.90;;;;;;5062149;28;20455;-70
2023/10/27 11:11:04;;;;;;;5.90;0.70;;;16.60;99.90;;;;;;5061136;28;20468;-70
2023/10/27 11:13:39;;;;;;;6.70;1.10;;;16.10;99.90;;;;;;5061110;28;20972;-71
2023/10/27 11:16:15;;;;;;;7.67;0.90;;;15.70;99.90;;;;;;5061661;28;20479;-71
2023/10/27 11:18:44;;;;;;;7.67;0.93;;;15.60;99.90;;;;;;5059740;28;20455;-71
2023/10/27 11:21:17;;;;;;;6.10;0.80;;;16.10;99.90;;;;;;5063267;28;20455;-71
2023/10/27 11:23:45;;;;;;;6.60;1.03;;;16.80;99.90;;;;;;5062885;28;20492;-71
2023/10/27 11:26:16;;;;;;;6.90;0.80;;;17.60;99.90;;;;;;5063457;28;20485;-68
2023/10/27 11:28:44;;;;;;;7.30;1.13;;;18.30;99.90;;;;;;5064129;28;20485;-69
2023/10/27 11:31:19;;;;;;;6.20;1.00;;;17.50;99.90;;;;;;5063620;28;20454;-70
2023/10/27 11:33:57;;;;;;;7.60;1.00;;;16.20;99.90;;;;;;5063630;28;20438;-70
2023/10/27 11:36:26;;;;;;;6.57;0.80;;;15.80;99.90;;;;;;5061768;28;20592;-70
2023/10/27 11:38:54;;;;;;;7.27;0.80;;;15.20;99.90;;;;;;5063839;28;20449;-70
2023/10/27 11:41:22;;;;;;;7.40;0.80;;;14.80;99.90;;;;;;5059260;28;20467;-70
2023/10/27 11:43:50;;;;;;;6.73;0.90;;;14.90;99.90;;;;;;5061713;28;20511;-69
2023/10/27 11:46:20;;;;;;;8.67;1.03;;;15.10;99.90;;;;;;5063854;28;20848;-70
2023/10/27 11:48:49;;;;;;;5.70;0.70;;;15.00;99.90;;;;;;5062933;28;20453;-69
2023/10/27 11:51:17;;;;;;;6.77;0.80;;;15.10;99.90;;;;;;5060360;28;20445;-70
2023/10/27 11:53:46;;;;;;;7.80;2.03;;;14.80;99.90;;;;;;5060580;28;20450;-71
2023/10/27 11:56:14;;;;;;;6.73;0.70;;;14.50;99.90;;;;;;5063599;28;20915;-71
2023/10/27 11:58:42;;;;;;;8.87;1.27;;;14.60;99.90;;;;;;5062953;28;20821;-70
2023/10/27 12:01:10;;;;;;;6.70;0.80;;;14.70;99.90;;;;;;5060535;28;20439;-71
2023/10/27 12:03:40;;;;;;;8.63;1.00;;;14.70;99.90;;;;;;5063048;28;20518;-70
2023/10/27 12:06:08;;;;;;;8.07;1.10;;;14.80;99.90;;;;;;5060649;28;20451;-70
2023/10/27 12:08:37;;;;;;;7.00;1.10;;;14.90;99.90;;;;;;5059464;28;20447;-69
2023/10/27 12:11:04;;;;;;;10.33;0.87;;;14.70;99.90;;;;;;5059356;28;20462;-68
2023/10/27 12:13:32;;;;;;;6.53;0.80;;;14.60;99.90;;;;;;5062008;28;20522;-70
2023/10/27 12:16:00;;;;;;;7.13;0.60;;;14.80;99.90;;;;;;5059230;28;20451;-71
2023/10/27 12:18:31;;;;;;;7.80;1.30;;;15.00;99.90;;;;;;5060240;28;20490;-70
2023/10/27 12:21:02;;;;;;;6.60;0.90;;;15.00;99.90;;;;;;5059240;28;20455;-69
2023/10/27 12:23:32;;;;;;;6.40;0.80;;;15.10;99.90;;;;;;5062944;28;20486;-69
2023/10/27 12:26:00;;;;;;;7.73;0.80;;;15.10;99.90;;;;;;5061178;28;20509;-71
2023/10/27 12:28:29;;;;;;;6.47;0.77;;;15.00;99.90;;;;;;5063333;28;20453;-71
2023/10/27 12:30:58;;;;;;;9.20;1.07;;;14.80;99.90;;;;;;5060471;28;20501;-71
2023/10/27 12:33:26;;;;;;;7.50;1.10;;;14.80;99.90;;;;;;5061188;28;20456;-72
2023/10/27 12:35:55;;;;;;;6.37;0.73;;;15.00;99.90;;;;;;5060486;28;20487;-71
2023/10/27 12:38:24;;;;;;;6.00;0.73;;;15.00;99.90;;;;;;5063423;28;20828;-70
2023/10/27 12:40:53;;;;;;;7.00;0.73;;;15.20;99.90;;;;;;5060130;28;20463;-70
2023/10/27 12:43:21;;;;;;;10.53;0.90;;;15.10;99.90;;;;;;5060997;28;20537;-71
2023/10/27 12:45:49;;;;;;;6.40;0.70;;;15.10;99.90;;;;;;5062091;28;20475;-70
2023/10/27 12:48:17;;;;;;;6.30;0.70;;;15.20;99.90;;;;;;5063606;28;20453;-71
2023/10/27 12:50:45;;;;;;;5.70;0.60;;;15.40;99.90;;;;;;5060709;28;20960;-70
2023/10/27 12:53:13;;;;;;;7.60;0.57;;;15.60;99.90;;;;;;5062071;28;20456;-71
2023/10/27 12:55:42;;;;;;;6.20;0.70;;;15.80;99.90;;;;;;5063722;28;20457;-70